Time;durP1;ratioP1;P1;durP2;ratioP2;P2;SDS_P1;SDS_P2;PMS_P1;PMS_P2;Temp;Humidity;BMP_temperature;BMP_pressure;BME280_temperature;BME280_humidity;BME280_pressure;Samples;Min_cycle;Max_cycle;Signal;HPM_P1;HPM_P2
2021/04/10 00:00:33;;;;;;;49.30;18.20;;;;;;;6.93;55.39;100424.48;5020016;57;1138700;-74
2021/04/10 00:05:59;;;;;;;37.70;19.20;;;;;;;6.85;55.40;100424.62;5019619;57;1139088;-71
2021/04/10 00:11:24;;;;;;;43.83;20.93;;;;;;;6.73;55.57;100422.27;5020218;58;1138851;-75
2021/04/10 00:16:50;;;;;;;40.87;18.70;;;;;;;6.65;55.88;100416.67;5019883;57;1138568;-73
2021/04/10 00:22:15;;;;;;;41.13;17.93;;;;;;;6.52;56.09;100410.50;5019688;57;1138870;-74
2021/04/10 00:27:41;;;;;;;42.70;18.77;;;;;;;6.44;56.35;100408.34;5021504;57;1138769;-74
2021/04/10 00:33:06;;;;;;;40.07;18.07;;;;;;;6.39;56.59;100406.48;5021371;57;1138599;-72
2021/04/10 00:38:34;;;;;;;42.50;17.60;;;;;;;6.36;56.81;100397.47;5019340;57;1138511;-74
2021/04/10 00:44:00;;;;;;;37.77;16.83;;;;;;;6.32;56.96;100403.37;4998021;57;1138600;-72
2021/04/10 00:49:26;;;;;;;37.97;17.67;;;;;;;6.27;57.21;100410.69;4978800;58;1138429;-74
2021/04/10 00:54:53;;;;;;;35.90;16.65;;;;;;;6.24;57.35;100406.12;4980476;58;1138918;-76
2021/04/10 01:00:20;;;;;;;35.43;16.73;;;;;;;6.22;57.41;100410.15;4978788;58;1138818;-76
2021/04/10 01:05:45;;;;;;;34.75;16.27;;;;;;;6.18;57.56;100407.33;4980619;58;1138888;-74
2021/04/10 01:11:29;;;;;;;32.00;16.87;;;;;;;6.13;57.71;100416.41;4980513;58;1138653;-77
2021/04/10 01:17:02;;;;;;;40.35;18.30;;;;;;;6.10;57.81;100420.09;4979431;58;1138615;-77
2021/04/10 01:23:05;;;;;;;38.87;15.90;;;;;;;6.15;57.92;100417.16;4980485;58;1138658;-74
2021/04/10 01:29:05;;;;;;;40.33;17.67;;;;;;;6.18;57.91;100404.70;4978595;58;1138825;-75
2021/04/10 01:34:43;;;;;;;39.50;17.57;;;;;;;6.14;57.84;100403.66;4978422;58;1138325;-74
2021/04/10 01:40:13;;;;;;;35.77;16.57;;;;;;;6.12;57.87;100391.09;4978650;58;1138654;-75
2021/04/10 01:45:42;;;;;;;41.27;16.50;;;;;;;6.07;57.94;100386.61;5000946;57;1139237;-73
2021/04/10 01:51:11;;;;;;;33.70;15.80;;;;;;;6.00;58.05;100381.72;5020204;58;1138892;-76
2021/04/10 01:56:40;;;;;;;32.30;15.77;;;;;;;5.94;58.22;100394.39;4951369;58;1138802;-79
2021/04/10 02:02:08;;;;;;;30.97;15.57;;;;;;;5.89;58.41;100403.84;4951507;58;1138625;-70
2021/04/10 02:07:35;;;;;;;40.37;18.03;;;;;;;5.86;58.54;100401.83;4951162;57;1138502;-76
2021/04/10 02:13:03;;;;;;;40.10;17.53;;;;;;;5.88;58.65;100403.47;4951599;58;1138484;-74
2021/04/10 02:18:37;;;;;;;40.97;17.33;;;;;;;5.89;58.52;100402.53;4928649;58;1138912;-74
2021/04/10 02:24:05;;;;;;;37.80;18.17;;;;;;;5.90;58.68;100413.41;4951368;58;1138621;-74
2021/04/10 02:29:33;;;;;;;40.30;20.27;;;;;;;5.91;58.83;100416.87;4951058;58;1138889;-72
2021/04/10 02:35:25;;;;;;;39.47;19.03;;;;;;;5.88;59.04;100414.40;4951214;57;1138678;-75
2021/04/10 02:40:58;;;;;;;43.50;20.60;;;;;;;5.82;59.23;100407.72;5010360;57;1138801;-76
2021/04/10 02:46:27;;;;;;;42.40;20.53;;;;;;;5.76;59.40;100417.30;5021829;57;1138997;-78
2021/04/10 02:51:57;;;;;;;40.17;18.27;;;;;;;5.58;59.41;100418.37;5020029;57;1138652;-73
2021/04/10 02:57:26;;;;;;;37.30;19.33;;;;;;;5.50;59.85;100424.55;5020001;57;1138775;-73
2021/04/10 03:02:51;;;;;;;38.75;18.12;;;;;;;5.45;60.17;100415.63;5019624;57;1138608;-75
2021/04/10 03:08:23;;;;;;;37.37;17.23;;;;;;;5.46;60.46;100414.69;5019990;57;1138800;-73
2021/04/10 03:13:49;;;;;;;38.30;17.25;;;;;;;5.46;60.54;100417.31;4887294;58;1138625;-76
2021/04/10 03:19:17;;;;;;;39.10;18.43;;;;;;;5.39;60.78;100419.90;4857795;59;1138730;-78
2021/04/10 03:24:45;;;;;;;39.13;18.77;;;;;;;5.29;61.11;100419.59;4857605;59;1148903;-74
2021/04/10 03:30:13;;;;;;;38.50;19.27;;;;;;;5.27;61.49;100416.21;4858309;59;1138569;-72
2021/04/10 03:35:40;;;;;;;40.90;17.23;;;;;;;5.27;61.68;100424.08;4846748;59;1138506;-78
2021/04/10 03:41:08;;;;;;;40.77;19.03;;;;;;;5.28;61.79;100419.68;4858426;59;1138755;-73
2021/04/10 03:46:37;;;;;;;39.50;18.43;;;;;;;5.32;62.21;100422.98;4887460;58;1138617;-74
2021/04/10 03:52:04;;;;;;;41.60;19.43;;;;;;;5.36;62.16;100424.00;4800189;60;1138537;-73
2021/04/10 03:57:29;;;;;;;48.23;20.03;;;;;;;5.41;62.27;100424.59;4858086;59;1138468;-78
2021/04/10 04:02:54;;;;;;;38.63;18.05;;;;;;;5.47;62.20;100432.59;4880294;59;1138477;-75
2021/04/10 04:08:19;;;;;;;41.00;17.30;;;;;;;5.49;62.17;100430.72;4879825;59;1138514;-75
2021/04/10 04:13:45;;;;;;;41.43;18.43;;;;;;;5.51;62.23;100427.05;4880224;59;1145334;-74
2021/04/10 04:19:09;;;;;;;217.80;86.97;;;;;;;5.55;62.26;100427.26;4880948;59;1138530;-76
2021/04/10 04:24:35;;;;;;;40.27;19.77;;;;;;;5.59;62.39;100426.16;4880514;59;1140566;-75
2021/04/10 04:30:00;;;;;;;37.65;18.05;;;;;;;5.56;62.18;100432.04;4922454;58;1138784;-76
2021/04/10 04:35:25;;;;;;;33.63;16.73;;;;;;;5.49;62.18;100439.91;4952283;58;1138319;-77
2021/04/10 04:40:51;;;;;;;78.37;33.57;;;;;;;5.46;62.23;100441.39;4936036;59;1138815;-75
2021/04/10 04:46:16;;;;;;;48.07;21.33;;;;;;;5.42;62.45;100435.46;4935635;59;1138493;-72
2021/04/10 04:51:41;;;;;;;51.47;20.67;;;;;;;5.46;62.62;100425.19;4938127;58;1257199;-72
2021/04/10 04:57:07;;;;;;;46.70;21.30;;;;;;;5.48;62.86;100416.77;4929040;59;1138289;-78
2021/04/10 05:02:32;;;;;;;48.30;21.53;;;;;;;5.49;63.10;100425.48;4935765;59;1138765;-76
2021/04/10 05:07:59;;;;;;;48.75;19.73;;;;;;;5.50;63.42;100417.48;4935683;59;1138573;-75
2021/04/10 05:13:24;;;;;;;38.53;18.87;;;;;;;5.59;63.75;100426.62;4934238;59;1138523;-73
2021/04/10 05:18:50;;;;;;;56.42;22.82;;;;;;;5.70;63.91;100443.03;4948889;58;1140606;-76
2021/04/10 05:24:14;;;;;;;50.80;22.03;;;;;;;5.82;63.89;100448.40;4967097;58;1138509;-74
2021/04/10 05:29:40;;;;;;;36.00;18.37;;;;;;;5.85;63.65;100460.04;4966734;58;1138782;-73
2021/04/10 05:35:06;;;;;;;30.00;16.53;;;;;;;5.86;63.58;100472.23;4966931;58;1138563;-75
2021/04/10 05:40:31;;;;;;;29.70;16.13;;;;;;;5.89;63.61;100466.84;4966765;58;1138530;-74
2021/04/10 05:45:56;;;;;;;39.77;17.53;;;;;;;5.93;63.78;100474.91;4967085;58;1138547;-77
2021/04/10 05:51:21;;;;;;;43.53;19.20;;;;;;;5.95;63.79;100475.67;4957210;58;1138516;-75
2021/04/10 05:56:47;;;;;;;36.63;17.87;;;;;;;5.96;63.98;100477.34;4935590;59;1146028;-77
2021/04/10 06:02:13;;;;;;;27.23;12.57;;;;;;;5.98;63.63;100471.53;4934843;59;1138766;-72
2021/04/10 06:07:39;;;;;;;32.03;17.37;;;;;;;6.02;63.55;100478.77;4935173;59;1138603;-74
2021/04/10 06:13:05;;;;;;;36.30;17.27;;;;;;;6.08;63.66;100479.72;4935003;59;1138474;-73
2021/04/10 06:18:30;;;;;;;36.10;16.03;;;;;;;6.19;63.58;100490.42;4935026;59;1138530;-73
2021/04/10 06:23:56;;;;;;;31.62;17.15;;;;;;;6.29;63.57;100495.95;4912207;59;1138739;-74
2021/04/10 06:29:21;;;;;;;26.17;14.97;;;;;;;6.35;63.23;100509.58;4886714;59;1138492;-74
2021/04/10 06:34:46;;;;;;;27.63;14.23;;;;;;;6.39;63.00;100530.41;4913384;59;1144093;-77
2021/04/10 06:40:13;;;;;;;28.77;13.37;;;;;;;6.42;63.11;100537.61;4929835;59;1138562;-75
2021/04/10 06:45:39;;;;;;;36.77;16.07;;;;;;;6.45;63.01;100544.47;4864497;58;1138826;-74
2021/04/10 06:51:06;;;;;;;40.97;16.10;;;;;;;6.47;63.37;100557.90;4852463;60;1138800;-73
2021/04/10 06:56:35;;;;;;;24.70;13.33;;;;;;;6.51;63.69;100583.06;4884575;59;1138686;-74
2021/04/10 07:02:00;;;;;;;18.87;9.13;;;;;;;6.54;63.40;100575.47;4969528;57;1138508;-78
2021/04/10 07:07:27;;;;;;;35.43;17.23;;;;;;;6.59;63.60;100563.72;4972500;58;1136409;-77
2021/04/10 07:12:52;;;;;;;38.92;18.07;;;;;;;6.68;63.49;100572.39;4973365;57;1138557;-75
2021/04/10 07:18:18;;;;;;;32.50;15.30;;;;;;;6.77;63.68;100581.95;4973078;57;1138273;-73
2021/04/10 07:23:53;;;;;;;27.60;14.17;;;;;;;6.85;63.56;100586.28;4972956;57;1138461;-73
2021/04/10 07:29:32;;;;;;;28.83;16.00;;;;;;;6.95;63.98;100604.49;4973156;57;1138566;-76
2021/04/10 07:35:03;;;;;;;19.93;10.93;;;;;;;7.04;63.82;100594.71;4898436;57;1138723;-74
2021/04/10 07:40:28;;;;;;;29.90;15.53;;;;;;;7.17;63.01;100593.51;4908093;58;1138672;-77
2021/04/10 07:46:15;;;;;;;34.85;16.45;;;;;;;7.22;63.50;100591.41;4795312;59;1139052;-72
2021/04/10 07:51:56;;;;;;;24.80;10.73;;;;;;;7.21;64.16;100601.56;4788309;60;1138595;-79
2021/04/10 07:57:22;;;;;;;24.87;13.30;;;;;;;7.28;65.11;100614.72;4875232;58;1138687;-74
2021/04/10 08:02:47;;;;;;;37.00;17.83;;;;;;;7.26;65.58;100625.80;4935945;57;1141349;-75
2021/04/10 08:08:13;;;;;;;64.27;34.60;;;;;;;7.25;65.51;100621.48;4903529;59;1138692;-73
2021/04/10 08:13:38;;;;;;;83.07;41.50;;;;;;;7.24;65.71;100631.62;4793048;59;1138606;-79
2021/04/10 08:19:04;;;;;;;695.62;331.50;;;;;;;7.25;66.09;100646.47;4878303;59;1141149;-74
2021/04/10 08:24:46;;;;;;;160.67;58.70;;;;;;;7.20;66.43;100651.16;4876646;59;1142511;-77
2021/04/10 08:30:10;;;;;;;100.80;42.07;;;;;;;7.13;66.57;100661.23;5027301;56;1140357;-76
2021/04/10 08:35:37;;;;;;;38.10;17.33;;;;;;;7.09;67.42;100672.86;5070194;57;1140363;-75
2021/04/10 08:41:07;;;;;;;41.05;20.30;;;;;;;7.09;67.60;100673.33;5056896;57;1140412;-78
2021/04/10 08:46:34;;;;;;;52.43;25.00;;;;;;;7.06;68.04;100678.30;5062250;57;1138427;-73
2021/04/10 08:52:13;;;;;;;130.97;53.13;;;;;;;7.10;68.55;100682.45;5103625;57;1138708;-73
2021/04/10 08:57:41;;;;;;;59.23;23.83;;;;;;;7.16;68.74;100684.72;5076998;57;1142807;-77
2021/04/10 09:03:06;;;;;;;50.23;20.90;;;;;;;7.22;68.87;100686.11;5063028;57;1140776;-76
2021/04/10 09:08:31;;;;;;;38.03;20.60;;;;;;;7.23;69.21;100688.66;5063102;57;1139026;-75
2021/04/10 09:13:57;;;;;;;47.10;20.35;;;;;;;7.24;69.38;100691.66;5060902;57;1138856;-74
2021/04/10 09:19:28;;;;;;;48.10;22.93;;;;;;;7.29;69.69;100700.12;5060871;57;1138655;-76
2021/04/10 09:24:57;;;;;;;55.20;24.70;;;;;;;7.38;69.81;100695.61;5060491;57;1140666;-73
2021/04/10 09:30:42;;;;;;;42.20;20.33;;;;;;;7.48;70.15;100695.91;5059812;57;1140610;-75
2021/04/10 09:36:07;;;;;;;34.30;17.77;;;;;;;7.52;70.36;100697.38;5023509;57;1140573;-76
2021/04/10 09:41:51;;;;;;;33.57;18.23;;;;;;;7.51;70.39;100703.58;4981495;57;1140695;-73
2021/04/10 09:47:16;;;;;;;;;;;;;;;7.50;70.53;100699.73;4980949;57;1138405;-77
2021/04/10 09:52:41;;;;;;;36.80;21.45;;;;;;;7.51;70.78;100686.95;4994761;58;971454;-78
2021/04/10 09:58:13;;;;;;;47.33;21.67;;;;;;;7.48;71.15;100680.11;4997255;57;1136666;-73
2021/04/10 10:03:38;;;;;;;32.83;17.80;;;;;;;7.46;71.16;100676.73;5033187;57;1140452;-74
2021/04/10 10:09:07;;;;;;;51.60;30.23;;;;;;;7.53;71.55;100671.44;5034229;57;1140512;-73
2021/04/10 10:14:48;;;;;;;27.20;18.63;;;;;;;7.53;71.57;100666.64;5033977;57;1140600;-75
2021/04/10 10:20:15;;;;;;;45.73;25.72;;;;;;;7.50;71.86;100651.04;5035759;57;1140603;-76
2021/04/10 10:25:41;;;;;;;31.60;18.50;;;;;;;7.48;72.29;100652.95;5034977;57;1138562;-75
2021/04/10 10:31:14;;;;;;;45.97;26.00;;;;;;;7.43;72.25;100655.02;5034794;57;1141054;-74
2021/04/10 10:36:42;;;;;;;39.43;23.47;;;;;;;7.47;72.36;100651.26;5034109;57;1140782;-73
2021/04/10 10:42:09;;;;;;;34.47;19.10;;;;;;;7.54;72.60;100646.81;5034178;57;1140331;-75
2021/04/10 10:47:35;;;;;;;44.13;24.60;;;;;;;7.59;72.71;100654.43;5033955;57;1140412;-73
2021/04/10 10:53:21;;;;;;;47.05;24.77;;;;;;;7.60;72.94;100675.39;5034227;57;1140444;-72
2021/04/10 10:58:58;;;;;;;38.27;20.23;;;;;;;7.59;73.18;100673.70;5042331;57;1140509;-74
2021/04/10 11:04:30;;;;;;;46.73;21.13;;;;;;;7.59;73.17;100680.75;5077591;57;1140514;-74
2021/04/10 11:09:57;;;;;;;33.93;18.20;;;;;;;7.59;73.35;100697.86;5077579;57;1140760;-73
2021/04/10 11:15:22;;;;;;;29.37;17.83;;;;;;;7.59;73.64;100701.34;5077714;57;1140647;-74
2021/04/10 11:20:48;;;;;;;30.80;19.00;;;;;;;7.54;73.94;100704.71;5077898;56;1140975;-73
2021/04/10 11:26:13;;;;;;;34.67;19.00;;;;;;;7.56;73.98;100708.57;5077673;57;1140599;-73
2021/04/10 11:31:39;;;;;;;43.50;22.03;;;;;;;7.62;74.08;100719.58;5077485;57;1140569;-74
2021/04/10 11:37:08;;;;;;;39.70;21.23;;;;;;;7.72;74.30;100718.52;5077604;57;1140751;-76
2021/04/10 11:42:41;;;;;;;32.37;20.57;;;;;;;7.78;74.60;100721.25;5077567;57;1140677;-74
2021/04/10 11:48:23;;;;;;;50.03;27.10;;;;;;;7.75;74.52;100731.50;5078059;57;1140668;-75
2021/04/10 11:53:50;;;;;;;57.13;28.37;;;;;;;7.74;74.62;100741.19;5077569;57;1140882;-73
2021/04/10 11:59:14;;;;;;;73.13;36.03;;;;;;;7.82;74.91;100749.91;5026631;57;1140450;-74
2021/04/10 12:04:40;;;;;;;50.47;29.37;;;;;;;7.85;75.08;100754.14;4944670;58;1140763;-73
2021/04/10 12:10:07;;;;;;;39.92;23.85;;;;;;;7.85;75.21;100755.45;5023131;57;1140465;-74
2021/04/10 12:15:36;;;;;;;38.17;24.47;;;;;;;7.85;75.40;100756.30;4893866;59;1140469;-73
2021/04/10 12:21:03;;;;;;;38.85;24.37;;;;;;;7.84;75.44;100746.71;4993744;58;1141031;-73
2021/04/10 12:26:29;;;;;;;35.80;22.23;;;;;;;7.86;75.51;100748.78;4995839;57;1140619;-73
2021/04/10 12:31:54;;;;;;;39.73;24.43;;;;;;;7.89;75.67;100756.97;4995684;57;1140628;-74
2021/04/10 12:37:20;;;;;;;41.80;22.60;;;;;;;7.92;76.13;100764.21;4995833;57;1140602;-74
2021/04/10 12:42:44;;;;;;;39.33;19.98;;;;;;;7.93;75.87;100763.73;4995373;58;1140835;-73
2021/04/10 12:48:10;;;;;;;44.37;25.57;;;;;;;7.95;75.92;100771.89;4995680;57;1140695;-73
2021/04/10 12:53:35;;;;;;;35.97;22.30;;;;;;;7.98;76.18;100769.07;4995614;58;1140596;-73
2021/04/10 12:59:00;;;;;;;36.53;21.45;;;;;;;8.02;76.24;100771.05;4997465;57;1140814;-74
2021/04/10 13:04:29;;;;;;;33.90;19.67;;;;;;;8.07;76.03;100769.83;4971263;57;1140717;-76
2021/04/10 13:09:55;;;;;;;37.07;20.53;;;;;;;8.11;75.84;100774.41;4965807;57;1140772;-74
2021/04/10 13:15:21;;;;;;;52.57;30.60;;;;;;;8.18;76.06;100781.47;5001963;57;1141095;-77
2021/04/10 13:20:46;;;;;;;89.03;49.27;;;;;;;8.17;76.05;100781.94;5001951;57;1140565;-73
2021/04/10 13:26:12;;;;;;;51.92;35.75;;;;;;;8.18;76.18;100782.31;5001607;57;1140585;-74
2021/04/10 13:31:37;;;;;;;39.73;25.53;;;;;;;8.11;75.77;100788.42;5002177;57;1140497;-73
2021/04/10 13:37:02;;;;;;;31.62;20.55;;;;;;;8.13;76.09;100784.38;5002127;57;1140709;-75
2021/04/10 13:42:26;;;;;;;29.13;20.43;;;;;;;8.13;76.13;100793.13;5001851;57;1140765;-74
2021/04/10 13:47:53;;;;;;;34.25;19.07;;;;;;;8.20;76.11;100792.28;4974653;57;1140590;-75
2021/04/10 13:53:18;;;;;;;29.30;18.80;;;;;;;8.28;76.09;100783.88;4939287;57;1140558;-73
2021/04/10 13:58:44;;;;;;;27.47;17.60;;;;;;;8.36;76.18;100787.77;4958774;57;1140595;-74
2021/04/10 14:04:11;;;;;;;28.20;16.05;;;;;;;8.37;76.15;100786.83;4962323;57;1140858;-73
2021/04/10 14:09:36;;;;;;;20.50;14.60;;;;;;;8.39;75.94;100786.73;4960994;57;1140581;-74
2021/04/10 14:15:03;;;;;;;23.63;16.70;;;;;;;8.43;75.65;100784.25;4959271;57;1140622;-74
2021/04/10 14:20:34;;;;;;;28.87;18.77;;;;;;;8.42;75.47;100791.30;4945096;57;1140522;-75
2021/04/10 14:25:59;;;;;;;30.95;19.95;;;;;;;8.40;75.60;100791.06;4900915;58;1140610;-74
2021/04/10 14:31:25;;;;;;;48.40;29.17;;;;;;;8.36;75.62;100796.14;4803806;60;1140520;-75
2021/04/10 14:36:52;;;;;;;42.87;25.53;;;;;;;8.41;75.53;100805.90;4827579;59;1140855;-74
2021/04/10 14:42:18;;;;;;;38.13;25.23;;;;;;;8.44;75.54;100799.97;4879652;59;1140566;-75
2021/04/10 14:47:43;;;;;;;31.90;22.23;;;;;;;8.52;75.65;100806.08;4879841;58;1140699;-76
2021/04/10 14:53:40;;;;;;;80.35;34.20;;;;;;;8.51;75.47;100798.27;4879857;58;1140599;-75
2021/04/10 14:59:06;;;;;;;28.57;18.98;;;;;;;8.49;75.62;100801.00;4800119;59;1140676;-76
2021/04/10 15:04:32;;;;;;;49.33;28.00;;;;;;;8.52;75.44;100813.98;4831867;58;1140711;-77
2021/04/10 15:09:57;;;;;;;32.03;20.63;;;;;;;8.55;75.28;100807.20;4774415;60;1140785;-77
2021/04/10 15:15:23;;;;;;;31.77;17.33;;;;;;;8.58;75.36;100810.09;4998220;57;1140804;-77
2021/04/10 15:20:50;;;;;;;51.50;21.87;;;;;;;8.57;75.25;100811.88;5023935;55;1140844;-77
2021/04/10 15:26:17;;;;;;;51.10;25.37;;;;;;;8.59;75.16;100808.67;5025478;57;1140889;-76
2021/04/10 15:31:52;;;;;;;35.50;21.33;;;;;;;8.64;74.89;100803.96;5021806;57;1140829;-76
2021/04/10 15:37:19;;;;;;;72.67;33.63;;;;;;;8.69;74.99;100812.42;5021513;57;1140834;-77
2021/04/10 15:42:44;;;;;;;45.60;23.43;;;;;;;8.68;74.88;100819.12;5025924;57;1140811;-77
2021/04/10 15:48:10;;;;;;;82.97;38.28;;;;;;;8.62;74.80;100830.89;5024973;57;1140960;-76
2021/04/10 15:53:36;;;;;;;75.45;35.03;;;;;;;8.58;74.58;100817.53;5025694;57;1140745;-76
2021/04/10 15:59:01;;;;;;;151.20;59.73;;;;;;;8.57;74.41;100828.17;5026438;57;1140761;-76
2021/04/10 16:04:27;;;;;;;84.97;39.07;;;;;;;8.57;74.40;100836.08;5022962;57;1142890;-75
2021/04/10 16:09:52;;;;;;;44.07;23.10;;;;;;;8.54;74.48;100827.92;4986049;57;1140950;-74
2021/04/10 16:15:17;;;;;;;180.50;71.37;;;;;;;8.49;74.40;100827.83;4969589;57;1140616;-75
2021/04/10 16:20:42;;;;;;;172.50;64.30;;;;;;;8.41;74.00;100838.84;4749014;60;1142853;-74
2021/04/10 16:26:08;;;;;;;203.17;68.50;;;;;;;8.30;74.28;100836.02;4740614;60;1142659;-75
2021/04/10 16:31:33;;;;;;;123.00;51.88;;;;;;;8.26;74.66;100831.88;4849763;58;1143008;-76
2021/04/10 16:37:00;;;;;;;385.40;274.73;;;;;;;8.20;74.86;100837.55;4823912;57;1142653;-75
2021/04/10 16:42:25;;;;;;;275.23;189.40;;;;;;;8.21;75.16;100837.92;4863361;58;1145060;-75
2021/04/10 16:47:51;;;;;;;122.50;87.60;;;;;;;8.21;75.42;100833.97;4866023;59;1144810;-75
2021/04/10 16:53:21;;;;;;;54.13;32.43;;;;;;;8.21;75.74;100839.24;4866281;58;1142794;-74
2021/04/10 16:58:46;;;;;;;190.90;67.63;;;;;;;8.16;75.64;100836.89;4847226;58;1140610;-74
2021/04/10 17:04:12;;;;;;;69.47;31.40;;;;;;;8.11;75.58;100839.80;4844708;58;1143123;-75
2021/04/10 17:09:40;;;;;;;48.60;24.37;;;;;;;8.07;75.72;100835.69;4877372;58;1140977;-75
2021/04/10 17:15:06;;;;;;;51.50;27.13;;;;;;;8.13;75.98;100843.19;4753482;59;1140909;-75
2021/04/10 17:20:32;;;;;;;54.67;28.03;;;;;;;8.15;76.11;100844.88;4882950;59;1140655;-77
2021/04/10 17:25:57;;;;;;;186.37;67.73;;;;;;;8.15;76.01;100846.20;4837128;59;1141004;-74
2021/04/10 17:31:23;;;;;;;430.33;152.77;;;;;;;8.05;75.80;100863.06;4835522;59;1143545;-76
2021/04/10 17:36:49;;;;;;;544.37;232.30;;;;;;;8.01;75.81;100862.86;4833852;58;1145005;-75
2021/04/10 17:42:14;;;;;;;379.83;152.27;;;;;;;7.96;75.60;100864.92;5011081;58;1145130;-73
2021/04/10 17:47:40;;;;;;;160.40;69.63;;;;;;;7.93;75.89;100867.77;5010211;57;1145018;-73
2021/04/10 17:53:16;;;;;;;139.10;58.55;;;;;;;7.94;76.16;100876.05;5001247;57;1143067;-73
2021/04/10 17:58:43;;;;;;;73.17;38.73;;;;;;;7.93;76.19;100868.61;5010697;58;1142788;-73
2021/04/10 18:04:08;;;;;;;85.30;41.92;;;;;;;7.82;75.89;100864.45;5010879;58;1138975;-77
2021/04/10 18:09:34;;;;;;;143.43;68.67;;;;;;;7.75;76.13;100865.30;5011318;58;1138826;-75
2021/04/10 18:14:59;;;;;;;266.77;116.00;;;;;;;7.69;75.99;100871.39;4987555;58;1143250;-72
2021/04/10 18:20:26;;;;;;;232.90;109.60;;;;;;;7.66;76.05;100869.79;4985328;57;1144763;-71
2021/04/10 18:25:52;;;;;;;146.60;66.97;;;;;;;7.71;76.15;100880.90;4972520;58;1144927;-73
2021/04/10 18:31:19;;;;;;;115.43;54.90;;;;;;;7.68;76.03;100877.13;4981155;57;1143076;-75
2021/04/10 18:36:45;;;;;;;78.10;40.13;;;;;;;7.59;76.08;100888.22;4982120;58;1142890;-73
2021/04/10 18:42:10;;;;;;;56.05;30.57;;;;;;;7.50;76.16;100901.05;4983258;58;1138724;-74
2021/04/10 18:47:36;;;;;;;53.40;27.40;;;;;;;7.50;76.31;100899.27;4983913;58;1140635;-76
2021/04/10 18:53:01;;;;;;;68.37;32.43;;;;;;;7.48;76.10;100891.11;4976518;58;1140868;-76
2021/04/10 18:58:28;;;;;;;59.80;31.13;;;;;;;7.47;76.26;100894.68;4978623;58;1140584;-78
2021/04/10 19:03:56;;;;;;;122.00;73.07;;;;;;;7.42;76.39;100892.31;4945492;58;1140638;-74
2021/04/10 19:09:22;;;;;;;175.53;75.10;;;;;;;7.39;76.59;100888.53;4977516;57;1140557;-73
2021/04/10 19:14:48;;;;;;;115.97;59.20;;;;;;;7.43;76.61;100893.16;4969980;58;1143105;-75
2021/04/10 19:20:14;;;;;;;128.38;62.90;;;;;;;7.50;76.62;100894.47;4975575;58;1142842;-77
2021/04/10 19:25:43;;;;;;;141.93;67.70;;;;;;;7.56;76.77;100893.66;4975301;58;1142778;-74
2021/04/10 19:31:08;;;;;;;137.50;64.90;;;;;;;7.52;76.34;100892.60;4981544;58;1142661;-76
2021/04/10 19:36:34;;;;;;;123.50;59.73;;;;;;;7.43;76.32;100893.16;4959590;58;1140522;-76
2021/04/10 19:42:00;;;;;;;126.87;59.47;;;;;;;7.36;76.62;100888.70;4957549;58;1140571;-78
2021/04/10 19:47:25;;;;;;;119.73;57.70;;;;;;;7.34;76.39;100890.58;4967281;57;1142545;-77
2021/04/10 19:52:51;;;;;;;107.67;55.20;;;;;;;7.35;76.59;100894.44;4979375;58;1142623;-74
2021/04/10 19:58:36;;;;;;;94.13;47.73;;;;;;;7.42;77.02;100892.31;4980062;58;1142671;-76
2021/04/10 20:04:02;;;;;;;153.03;82.67;;;;;;;7.47;77.05;100892.05;4930510;58;1140666;-71
2021/04/10 20:09:28;;;;;;;295.53;124.40;;;;;;;7.40;76.74;100896.34;4929551;58;1142672;-77
2021/04/10 20:14:53;;;;;;;197.28;82.35;;;;;;;7.42;76.69;100906.78;4996821;57;1145028;-77
2021/04/10 20:20:18;;;;;;;164.43;75.37;;;;;;;7.41;76.49;100898.04;5097073;57;1142671;-77
2021/04/10 20:25:44;;;;;;;114.40;53.43;;;;;;;7.37;76.49;100899.61;5096680;57;1142766;-73
2021/04/10 20:31:22;;;;;;;65.97;34.25;;;;;;;7.33;76.65;100905.52;5096827;57;1142921;-74
2021/04/10 20:36:54;;;;;;;88.30;42.63;;;;;;;7.30;76.75;100911.45;5081400;57;1138667;-75
2021/04/10 20:42:19;;;;;;;139.00;66.17;;;;;;;7.26;76.56;100911.23;5047611;57;1140585;-72
2021/04/10 20:47:44;;;;;;;176.73;86.67;;;;;;;7.26;76.52;100905.51;5044146;57;1142859;-77
2021/04/10 20:53:10;;;;;;;161.45;76.15;;;;;;;7.24;76.54;100906.52;4997017;57;1142529;-76
2021/04/10 20:58:35;;;;;;;97.93;47.83;;;;;;;7.10;76.11;100903.38;5060956;57;1142632;-72
2021/04/10 21:04:01;;;;;;;82.78;42.50;;;;;;;6.89;76.08;100907.20;5064788;57;1138817;-73
2021/04/10 21:09:27;;;;;;;57.90;31.80;;;;;;;6.72;76.49;100913.43;5063333;57;1138361;-77
2021/04/10 21:14:52;;;;;;;54.63;28.43;;;;;;;6.64;76.42;100915.61;5049353;57;1140802;-79
2021/04/10 21:20:18;;;;;;;42.83;25.57;;;;;;;6.55;76.47;100909.56;4940822;58;1140741;-74
2021/04/10 21:25:44;;;;;;;47.47;28.63;;;;;;;6.48;76.69;100909.50;4940512;58;1140626;-77
2021/04/10 21:31:14;;;;;;;56.05;28.30;;;;;;;6.49;77.28;100895.44;4946312;58;1141134;-78
2021/04/10 21:36:40;;;;;;;52.33;28.40;;;;;;;6.50;77.42;100894.04;4943471;58;1140953;-74
2021/04/10 21:42:06;;;;;;;67.50;31.87;;;;;;;6.36;77.04;100905.77;4948040;58;1145354;-75
2021/04/10 21:47:31;;;;;;;63.60;32.90;;;;;;;6.28;77.26;100904.00;4948448;58;1138660;-73
2021/04/10 21:52:57;;;;;;;65.10;32.23;;;;;;;6.22;77.03;100906.97;4947916;58;1140544;-74
2021/04/10 21:58:23;;;;;;;95.23;47.77;;;;;;;6.23;77.23;100913.92;4943730;58;1140693;-72
2021/04/10 22:03:52;;;;;;;113.90;55.00;;;;;;;6.34;78.09;100919.44;4952820;58;1140715;-74
2021/04/10 22:09:22;;;;;;;123.92;58.55;;;;;;;6.47;78.23;100910.43;4949159;58;1142918;-79
2021/04/10 22:14:50;;;;;;;120.37;55.37;;;;;;;6.42;78.04;100898.00;4955121;58;1140608;-77
2021/04/10 22:20:15;;;;;;;86.37;42.33;;;;;;;6.42;78.04;100898.00;4915089;58;1140711;-75
2021/04/10 22:25:41;;;;;;;78.47;38.83;;;;;;;6.49;77.61;100906.79;4917119;58;1140609;-73
2021/04/10 22:31:11;;;;;;;52.40;30.17;;;;;;;6.44;77.30;100899.61;4950054;58;1141574;-75
2021/04/10 22:36:37;;;;;;;65.87;35.87;;;;;;;6.41;77.50;100895.86;4976159;58;1140648;-76
2021/04/10 22:42:03;;;;;;;63.98;36.40;;;;;;;6.31;77.66;100896.81;4940432;58;1140669;-74
2021/04/10 22:47:27;;;;;;;59.17;33.67;;;;;;;6.21;77.95;100887.73;4852902;59;1138567;-73
2021/04/10 22:52:56;;;;;;;46.80;28.17;;;;;;;6.16;78.13;100887.59;4851028;60;1138567;-75
2021/04/10 22:58:22;;;;;;;61.57;33.67;;;;;;;6.15;78.33;100880.64;4836001;60;1141099;-76
2021/04/10 23:03:48;;;;;;;75.57;36.17;;;;;;;6.24;78.42;100867.03;4895552;58;1140363;-78
2021/04/10 23:09:12;;;;;;;77.37;38.45;;;;;;;6.29;78.35;100871.55;4893287;59;1140866;-74
2021/04/10 23:14:38;;;;;;;63.97;36.20;;;;;;;6.23;78.14;100860.93;4893588;59;1138315;-73
2021/04/10 23:20:07;;;;;;;47.02;29.60;;;;;;;6.18;78.42;100869.52;4909555;59;1138884;-75
2021/04/10 23:25:36;;;;;;;63.07;31.93;;;;;;;6.19;78.36;100866.42;4895139;59;1140651;-75
2021/04/10 23:31:01;;;;;;;62.60;32.20;;;;;;;6.22;78.43;100861.86;4895414;58;1141057;-73
2021/04/10 23:36:26;;;;;;;71.40;38.77;;;;;;;6.25;78.37;100846.41;4893162;59;1140646;-77
2021/04/10 23:41:51;;;;;;;52.30;30.43;;;;;;;6.18;78.40;100845.88;4893429;59;1138603;-75
2021/04/10 23:47:17;;;;;;;54.30;31.90;;;;;;;6.06;78.01;100845.70;4894158;59;1138535;-76
2021/04/10 23:52:43;;;;;;;60.53;34.20;;;;;;;5.95;78.30;100844.50;4893406;59;1140609;-76
2021/04/10 23:58:09;;;;;;;54.27;31.02;;;;;;;5.94;78.69;100850.68;4893745;59;1140666;-75
